Americus, Kansas
Current Conditions -  °F | °C
As of 5:53 PM on Tuesday 25 Nov 2014 (Local Time) from KEMP Reporting Station
Clear Clear  
Wind Chill: 33°   Ceiling: Unl
Heat Index: 39°   Visibility: 10mi
Dew Point: 23°   Wind: 9mph
Humidity: 53%   Direction: 180°S
Pressure: 30.04"   Gusts: NA
Location:  38.51°N, 96.26°W
Report Text: KEMP 252353Z AUTO 18008KT 10SM CLR 04/M05 A3004 RMK AO2 SLP187 T00391050 10089 20039 56014
Loading
Personal Weather Stations






























Interactive Weather Map New forecast layout! Learn more

10-Day Weather Forecast

Advertisements
Track Severe Weather on mobile